sensor_id;sensor_type;location;lat;lon;timestamp;P1;durP1;ratioP1;P2;durP2;ratioP2
14526;SDS011;7350;51.208;4.238;2022-09-09T00:00:16;3.67;;;2.00;;
14526;SDS011;7350;51.208;4.238;2022-09-09T00:02:45;4.68;;;2.17;;
14526;SDS011;7350;51.208;4.238;2022-09-09T00:05:23;3.47;;;2.10;;
14526;SDS011;7350;51.208;4.238;2022-09-09T00:07:58;6.25;;;2.40;;
14526;SDS011;7350;51.208;4.238;2022-09-09T00:10:29;7.00;;;2.45;;
14526;SDS011;7350;51.208;4.238;2022-09-09T00:13:01;5.30;;;2.97;;
14526;SDS011;7350;51.208;4.238;2022-09-09T00:15:36;3.38;;;2.15;;
14526;SDS011;7350;51.208;4.238;2022-09-09T00:18:12;8.75;;;3.60;;
14526;SDS011;7350;51.208;4.238;2022-09-09T00:20:49;5.65;;;2.65;;
14526;SDS011;7350;51.208;4.238;2022-09-09T00:23:25;3.75;;;2.20;;
14526;SDS011;7350;51.208;4.238;2022-09-09T00:25:56;6.20;;;2.60;;
14526;SDS011;7350;51.208;4.238;2022-09-09T00:28:29;5.93;;;2.33;;
14526;SDS011;7350;51.208;4.238;2022-09-09T00:30:59;6.70;;;2.28;;
14526;SDS011;7350;51.208;4.238;2022-09-09T00:33:35;4.55;;;2.20;;
14526;SDS011;7350;51.208;4.238;2022-09-09T00:36:07;4.55;;;2.25;;
14526;SDS011;7350;51.208;4.238;2022-09-09T00:38:40;5.03;;;2.40;;
14526;SDS011;7350;51.208;4.238;2022-09-09T00:41:11;5.53;;;2.60;;
14526;SDS011;7350;51.208;4.238;2022-09-09T00:43:46;6.63;;;2.33;;
14526;SDS011;7350;51.208;4.238;2022-09-09T00:49:15;4.80;;;2.17;;
14526;SDS011;7350;51.208;4.238;2022-09-09T00:51:52;4.53;;;2.10;;
14526;SDS011;7350;51.208;4.238;2022-09-09T00:54:30;4.50;;;2.55;;
14526;SDS011;7350;51.208;4.238;2022-09-09T00:57:07;6.97;;;2.38;;
14526;SDS011;7350;51.208;4.238;2022-09-09T00:59:45;4.90;;;2.28;;
14526;SDS011;7350;51.208;4.238;2022-09-09T01:02:16;4.65;;;2.10;;
14526;SDS011;7350;51.208;4.238;2022-09-09T01:04:54;5.68;;;2.42;;
14526;SDS011;7350;51.208;4.238;2022-09-09T01:07:27;5.32;;;2.20;;
14526;SDS011;7350;51.208;4.238;2022-09-09T01:09:55;5.95;;;2.45;;
14526;SDS011;7350;51.208;4.238;2022-09-09T01:12:24;6.90;;;2.30;;
14526;SDS011;7350;51.208;4.238;2022-09-09T01:14:56;7.88;;;1.90;;
14526;SDS011;7350;51.208;4.238;2022-09-09T01:17:30;4.18;;;1.80;;
14526;SDS011;7350;51.208;4.238;2022-09-09T01:20:04;7.97;;;2.13;;
14526;SDS011;7350;51.208;4.238;2022-09-09T01:22:43;6.25;;;2.17;;
14526;SDS011;7350;51.208;4.238;2022-09-09T01:25:20;2.85;;;1.98;;
14526;SDS011;7350;51.208;4.238;2022-09-09T01:27:55;8.27;;;2.50;;
14526;SDS011;7350;51.208;4.238;2022-09-09T01:30:25;6.15;;;2.00;;
14526;SDS011;7350;51.208;4.238;2022-09-09T01:32:54;5.72;;;2.05;;
14526;SDS011;7350;51.208;4.238;2022-09-09T01:35:36;5.75;;;2.10;;
14526;SDS011;7350;51.208;4.238;2022-09-09T01:38:07;6.10;;;2.03;;
14526;SDS011;7350;51.208;4.238;2022-09-09T01:40:35;6.28;;;2.10;;
14526;SDS011;7350;51.208;4.238;2022-09-09T01:43:04;6.82;;;2.20;;
14526;SDS011;7350;51.208;4.238;2022-09-09T01:45:31;5.22;;;2.13;;
14526;SDS011;7350;51.208;4.238;2022-09-09T01:47:59;7.07;;;2.20;;
14526;SDS011;7350;51.208;4.238;2022-09-09T01:50:28;6.30;;;1.98;;
14526;SDS011;7350;51.208;4.238;2022-09-09T01:52:56;5.47;;;1.83;;
14526;SDS011;7350;51.208;4.238;2022-09-09T01:55:28;7.47;;;2.75;;
14526;SDS011;7350;51.208;4.238;2022-09-09T01:57:59;6.18;;;2.00;;
14526;SDS011;7350;51.208;4.238;2022-09-09T02:00:39;4.80;;;2.03;;
14526;SDS011;7350;51.208;4.238;2022-09-09T02:03:12;5.15;;;2.58;;
14526;SDS011;7350;51.208;4.238;2022-09-09T02:05:49;8.00;;;3.45;;
14526;SDS011;7350;51.208;4.238;2022-09-09T02:08:23;9.40;;;2.88;;
14526;SDS011;7350;51.208;4.238;2022-09-09T02:10:55;5.53;;;2.72;;
14526;SDS011;7350;51.208;4.238;2022-09-09T02:13:29;7.03;;;2.67;;
14526;SDS011;7350;51.208;4.238;2022-09-09T02:16:00;8.50;;;3.25;;
14526;SDS011;7350;51.208;4.238;2022-09-09T02:18:34;7.90;;;3.10;;
14526;SDS011;7350;51.208;4.238;2022-09-09T02:21:04;6.18;;;3.10;;
14526;SDS011;7350;51.208;4.238;2022-09-09T02:23:32;9.13;;;3.80;;
14526;SDS011;7350;51.208;4.238;2022-09-09T02:26:01;8.25;;;3.17;;
14526;SDS011;7350;51.208;4.238;2022-09-09T02:28:31;6.75;;;3.45;;
14526;SDS011;7350;51.208;4.238;2022-09-09T02:31:04;7.95;;;3.30;;
14526;SDS011;7350;51.208;4.238;2022-09-09T02:33:32;10.07;;;3.78;;
14526;SDS011;7350;51.208;4.238;2022-09-09T02:36:02;8.88;;;4.00;;
14526;SDS011;7350;51.208;4.238;2022-09-09T02:38:32;9.73;;;3.92;;
14526;SDS011;7350;51.208;4.238;2022-09-09T02:41:02;7.10;;;3.55;;
14526;SDS011;7350;51.208;4.238;2022-09-09T02:43:32;7.35;;;3.60;;
14526;SDS011;7350;51.208;4.238;2022-09-09T02:46:02;7.53;;;3.28;;
14526;SDS011;7350;51.208;4.238;2022-09-09T02:48:35;7.78;;;3.95;;
14526;SDS011;7350;51.208;4.238;2022-09-09T02:51:14;8.25;;;3.60;;
14526;SDS011;7350;51.208;4.238;2022-09-09T02:53:47;8.50;;;3.30;;
14526;SDS011;7350;51.208;4.238;2022-09-09T02:56:18;5.90;;;3.10;;
14526;SDS011;7350;51.208;4.238;2022-09-09T02:58:49;8.55;;;3.45;;
14526;SDS011;7350;51.208;4.238;2022-09-09T03:01:17;10.63;;;3.15;;
14526;SDS011;7350;51.208;4.238;2022-09-09T03:03:44;7.03;;;2.75;;
14526;SDS011;7350;51.208;4.238;2022-09-09T03:06:11;9.10;;;2.78;;
14526;SDS011;7350;51.208;4.238;2022-09-09T03:08:39;5.25;;;2.80;;
14526;SDS011;7350;51.208;4.238;2022-09-09T03:11:07;7.75;;;2.97;;
14526;SDS011;7350;51.208;4.238;2022-09-09T03:13:35;5.60;;;2.58;;
14526;SDS011;7350;51.208;4.238;2022-09-09T03:16:04;8.98;;;2.90;;
14526;SDS011;7350;51.208;4.238;2022-09-09T03:18:31;7.30;;;2.78;;
14526;SDS011;7350;51.208;4.238;2022-09-09T03:20:59;6.15;;;2.60;;
14526;SDS011;7350;51.208;4.238;2022-09-09T03:23:26;6.80;;;2.50;;
14526;SDS011;7350;51.208;4.238;2022-09-09T03:25:53;5.75;;;2.75;;
14526;SDS011;7350;51.208;4.238;2022-09-09T03:28:23;11.25;;;2.83;;
14526;SDS011;7350;51.208;4.238;2022-09-09T03:30:57;7.20;;;2.65;;
14526;SDS011;7350;51.208;4.238;2022-09-09T03:33:26;9.13;;;2.35;;
14526;SDS011;7350;51.208;4.238;2022-09-09T03:35:54;6.60;;;2.35;;
14526;SDS011;7350;51.208;4.238;2022-09-09T03:38:22;6.18;;;2.90;;
14526;SDS011;7350;51.208;4.238;2022-09-09T03:40:49;8.65;;;2.75;;
14526;SDS011;7350;51.208;4.238;2022-09-09T03:43:20;12.60;;;3.05;;
14526;SDS011;7350;51.208;4.238;2022-09-09T03:45:47;10.20;;;2.72;;
14526;SDS011;7350;51.208;4.238;2022-09-09T03:48:14;7.65;;;2.47;;
14526;SDS011;7350;51.208;4.238;2022-09-09T03:50:45;12.25;;;3.08;;
14526;SDS011;7350;51.208;4.238;2022-09-09T03:53:13;10.23;;;2.78;;
14526;SDS011;7350;51.208;4.238;2022-09-09T03:55:43;5.55;;;2.20;;
14526;SDS011;7350;51.208;4.238;2022-09-09T03:58:10;10.18;;;2.40;;
14526;SDS011;7350;51.208;4.238;2022-09-09T04:00:38;10.95;;;3.10;;
14526;SDS011;7350;51.208;4.238;2022-09-09T04:03:07;8.40;;;2.40;;
14526;SDS011;7350;51.208;4.238;2022-09-09T04:05:34;8.00;;;2.33;;
14526;SDS011;7350;51.208;4.238;2022-09-09T04:08:06;9.38;;;2.63;;
14526;SDS011;7350;51.208;4.238;2022-09-09T04:10:33;9.25;;;2.67;;
14526;SDS011;7350;51.208;4.238;2022-09-09T04:13:02;11.15;;;2.60;;
14526;SDS011;7350;51.208;4.238;2022-09-09T04:15:29;7.35;;;2.33;;
14526;SDS011;7350;51.208;4.238;2022-09-09T04:17:56;9.35;;;2.72;;
14526;SDS011;7350;51.208;4.238;2022-09-09T04:20:23;6.97;;;1.92;;
14526;SDS011;7350;51.208;4.238;2022-09-09T04:22:50;9.00;;;2.47;;
14526;SDS011;7350;51.208;4.238;2022-09-09T04:25:18;7.78;;;2.40;;
14526;SDS011;7350;51.208;4.238;2022-09-09T04:27:45;10.43;;;2.50;;
14526;SDS011;7350;51.208;4.238;2022-09-09T04:30:13;9.32;;;2.80;;
14526;SDS011;7350;51.208;4.238;2022-09-09T04:32:40;7.40;;;2.33;;
14526;SDS011;7350;51.208;4.238;2022-09-09T04:35:07;5.85;;;2.25;;
14526;SDS011;7350;51.208;4.238;2022-09-09T04:37:34;8.43;;;2.78;;
14526;SDS011;7350;51.208;4.238;2022-09-09T04:40:01;8.85;;;3.00;;
14526;SDS011;7350;51.208;4.238;2022-09-09T04:42:29;10.23;;;2.60;;
14526;SDS011;7350;51.208;4.238;2022-09-09T04:45:00;8.00;;;2.40;;
14526;SDS011;7350;51.208;4.238;2022-09-09T04:47:27;8.60;;;2.50;;
14526;SDS011;7350;51.208;4.238;2022-09-09T04:49:54;11.20;;;2.90;;
14526;SDS011;7350;51.208;4.238;2022-09-09T04:52:21;11.10;;;2.67;;
14526;SDS011;7350;51.208;4.238;2022-09-09T04:54:48;11.85;;;3.22;;
14526;SDS011;7350;51.208;4.238;2022-09-09T04:57:15;9.07;;;2.90;;
14526;SDS011;7350;51.208;4.238;2022-09-09T04:59:43;9.57;;;2.42;;
14526;SDS011;7350;51.208;4.238;2022-09-09T05:02:10;9.20;;;2.53;;
14526;SDS011;7350;51.208;4.238;2022-09-09T05:04:37;9.48;;;2.63;;
14526;SDS011;7350;51.208;4.238;2022-09-09T05:07:04;9.05;;;2.60;;
14526;SDS011;7350;51.208;4.238;2022-09-09T05:09:31;15.18;;;2.95;;
14526;SDS011;7350;51.208;4.238;2022-09-09T05:11:58;9.48;;;3.15;;
14526;SDS011;7350;51.208;4.238;2022-09-09T05:14:25;8.18;;;2.67;;
14526;SDS011;7350;51.208;4.238;2022-09-09T05:16:56;9.18;;;2.53;;
14526;SDS011;7350;51.208;4.238;2022-09-09T05:19:23;10.30;;;2.60;;
14526;SDS011;7350;51.208;4.238;2022-09-09T05:21:50;7.25;;;2.47;;
14526;SDS011;7350;51.208;4.238;2022-09-09T05:24:17;8.00;;;2.78;;
14526;SDS011;7350;51.208;4.238;2022-09-09T05:26:44;9.45;;;2.30;;
14526;SDS011;7350;51.208;4.238;2022-09-09T05:29:11;9.23;;;2.50;;
14526;SDS011;7350;51.208;4.238;2022-09-09T05:31:38;12.57;;;2.90;;
14526;SDS011;7350;51.208;4.238;2022-09-09T05:34:07;12.80;;;2.78;;
14526;SDS011;7350;51.208;4.238;2022-09-09T05:36:34;11.68;;;2.50;;
14526;SDS011;7350;51.208;4.238;2022-09-09T05:39:01;9.57;;;2.70;;
14526;SDS011;7350;51.208;4.238;2022-09-09T05:41:28;11.50;;;3.03;;
14526;SDS011;7350;51.208;4.238;2022-09-09T05:43:56;8.32;;;2.63;;
14526;SDS011;7350;51.208;4.238;2022-09-09T05:46:26;10.55;;;2.47;;
14526;SDS011;7350;51.208;4.238;2022-09-09T05:48:53;14.30;;;2.88;;
14526;SDS011;7350;51.208;4.238;2022-09-09T05:51:22;10.13;;;2.38;;
14526;SDS011;7350;51.208;4.238;2022-09-09T05:53:51;11.57;;;2.38;;
14526;SDS011;7350;51.208;4.238;2022-09-09T05:56:20;7.65;;;2.67;;
14526;SDS011;7350;51.208;4.238;2022-09-09T05:58:50;5.45;;;2.30;;
14526;SDS011;7350;51.208;4.238;2022-09-09T06:01:19;10.00;;;2.75;;
14526;SDS011;7350;51.208;4.238;2022-09-09T06:03:48;9.30;;;2.25;;
14526;SDS011;7350;51.208;4.238;2022-09-09T06:06:16;6.43;;;2.50;;
14526;SDS011;7350;51.208;4.238;2022-09-09T06:08:47;11.48;;;2.33;;
14526;SDS011;7350;51.208;4.238;2022-09-09T06:11:17;11.07;;;2.50;;
14526;SDS011;7350;51.208;4.238;2022-09-09T06:13:45;6.07;;;2.05;;
14526;SDS011;7350;51.208;4.238;2022-09-09T06:16:13;9.32;;;2.58;;
14526;SDS011;7350;51.208;4.238;2022-09-09T06:18:42;6.32;;;2.10;;
14526;SDS011;7350;51.208;4.238;2022-09-09T06:21:11;10.30;;;2.92;;
14526;SDS011;7350;51.208;4.238;2022-09-09T06:23:41;7.72;;;2.25;;
14526;SDS011;7350;51.208;4.238;2022-09-09T06:26:11;9.40;;;2.83;;
14526;SDS011;7350;51.208;4.238;2022-09-09T06:28:39;8.48;;;2.55;;
14526;SDS011;7350;51.208;4.238;2022-09-09T06:31:08;15.77;;;3.33;;
14526;SDS011;7350;51.208;4.238;2022-09-09T06:33:36;9.32;;;2.58;;
14526;SDS011;7350;51.208;4.238;2022-09-09T06:36:06;8.68;;;2.60;;
14526;SDS011;7350;51.208;4.238;2022-09-09T06:38:36;7.95;;;2.22;;
14526;SDS011;7350;51.208;4.238;2022-09-09T06:41:03;9.95;;;2.90;;
14526;SDS011;7350;51.208;4.238;2022-09-09T06:43:32;8.48;;;2.60;;
14526;SDS011;7350;51.208;4.238;2022-09-09T06:46:00;8.10;;;2.78;;
14526;SDS011;7350;51.208;4.238;2022-09-09T06:48:29;10.50;;;2.40;;
14526;SDS011;7350;51.208;4.238;2022-09-09T06:51:03;8.05;;;2.08;;
14526;SDS011;7350;51.208;4.238;2022-09-09T06:53:31;9.38;;;2.00;;
14526;SDS011;7350;51.208;4.238;2022-09-09T06:55:59;9.32;;;2.38;;
14526;SDS011;7350;51.208;4.238;2022-09-09T06:58:27;9.73;;;2.50;;
14526;SDS011;7350;51.208;4.238;2022-09-09T07:01:02;9.80;;;2.50;;
14526;SDS011;7350;51.208;4.238;2022-09-09T07:03:30;7.63;;;2.47;;
14526;SDS011;7350;51.208;4.238;2022-09-09T07:06:02;12.15;;;2.83;;
14526;SDS011;7350;51.208;4.238;2022-09-09T07:08:30;9.00;;;2.60;;
14526;SDS011;7350;51.208;4.238;2022-09-09T07:11:01;8.48;;;2.53;;
14526;SDS011;7350;51.208;4.238;2022-09-09T07:13:30;12.65;;;2.85;;
14526;SDS011;7350;51.208;4.238;2022-09-09T07:16:04;9.27;;;2.67;;
14526;SDS011;7350;51.208;4.238;2022-09-09T07:18:32;7.28;;;2.35;;
14526;SDS011;7350;51.208;4.238;2022-09-09T07:20:59;10.18;;;2.40;;
14526;SDS011;7350;51.208;4.238;2022-09-09T07:23:27;11.45;;;2.70;;
14526;SDS011;7350;51.208;4.238;2022-09-09T07:25:55;8.68;;;2.88;;
14526;SDS011;7350;51.208;4.238;2022-09-09T07:28:23;9.18;;;2.15;;
14526;SDS011;7350;51.208;4.238;2022-09-09T07:30:54;6.47;;;2.20;;
14526;SDS011;7350;51.208;4.238;2022-09-09T07:33:23;5.95;;;2.33;;
14526;SDS011;7350;51.208;4.238;2022-09-09T07:35:50;7.85;;;2.33;;
14526;SDS011;7350;51.208;4.238;2022-09-09T07:38:19;10.02;;;2.30;;
14526;SDS011;7350;51.208;4.238;2022-09-09T07:40:47;10.85;;;2.67;;
14526;SDS011;7350;51.208;4.238;2022-09-09T07:43:14;9.00;;;2.10;;
14526;SDS011;7350;51.208;4.238;2022-09-09T07:45:42;8.65;;;2.25;;
14526;SDS011;7350;51.208;4.238;2022-09-09T07:48:09;6.78;;;2.13;;
14526;SDS011;7350;51.208;4.238;2022-09-09T07:50:38;7.20;;;2.05;;
14526;SDS011;7350;51.208;4.238;2022-09-09T07:53:05;8.32;;;2.25;;
14526;SDS011;7350;51.208;4.238;2022-09-09T07:55:32;8.35;;;2.28;;
14526;SDS011;7350;51.208;4.238;2022-09-09T07:57:59;8.30;;;2.25;;
14526;SDS011;7350;51.208;4.238;2022-09-09T08:00:26;7.60;;;2.10;;
14526;SDS011;7350;51.208;4.238;2022-09-09T08:02:53;7.75;;;2.20;;
14526;SDS011;7350;51.208;4.238;2022-09-09T08:05:20;10.98;;;2.15;;
14526;SDS011;7350;51.208;4.238;2022-09-09T08:07:49;9.50;;;2.40;;
14526;SDS011;7350;51.208;4.238;2022-09-09T08:10:16;7.53;;;2.08;;
14526;SDS011;7350;51.208;4.238;2022-09-09T08:12:43;8.68;;;2.33;;
14526;SDS011;7350;51.208;4.238;2022-09-09T08:15:10;8.15;;;2.25;;
14526;SDS011;7350;51.208;4.238;2022-09-09T08:17:37;8.65;;;2.42;;
14526;SDS011;7350;51.208;4.238;2022-09-09T08:20:04;8.55;;;3.15;;
14526;SDS011;7350;51.208;4.238;2022-09-09T08:22:32;7.45;;;2.17;;
14526;SDS011;7350;51.208;4.238;2022-09-09T08:25:00;7.30;;;2.00;;
14526;SDS011;7350;51.208;4.238;2022-09-09T08:27:31;7.50;;;2.28;;
14526;SDS011;7350;51.208;4.238;2022-09-09T08:29:58;11.32;;;2.08;;
14526;SDS011;7350;51.208;4.238;2022-09-09T08:32:25;9.95;;;2.13;;
14526;SDS011;7350;51.208;4.238;2022-09-09T08:34:52;8.15;;;1.90;;
14526;SDS011;7350;51.208;4.238;2022-09-09T08:37:19;6.53;;;2.00;;
14526;SDS011;7350;51.208;4.238;2022-09-09T08:39:46;8.60;;;2.33;;
14526;SDS011;7350;51.208;4.238;2022-09-09T08:45:14;11.60;;;2.08;;
14526;SDS011;7350;51.208;4.238;2022-09-09T08:48:01;6.25;;;1.70;;
14526;SDS011;7350;51.208;4.238;2022-09-09T08:50:44;7.53;;;1.70;;
14526;SDS011;7350;51.208;4.238;2022-09-09T08:53:14;9.02;;;2.00;;
14526;SDS011;7350;51.208;4.238;2022-09-09T08:55:47;7.65;;;2.00;;
14526;SDS011;7350;51.208;4.238;2022-09-09T08:58:19;7.15;;;2.10;;
14526;SDS011;7350;51.208;4.238;2022-09-09T09:00:50;7.72;;;2.20;;
14526;SDS011;7350;51.208;4.238;2022-09-09T09:03:30;10.23;;;2.30;;
14526;SDS011;7350;51.208;4.238;2022-09-09T09:06:08;6.07;;;1.98;;
14526;SDS011;7350;51.208;4.238;2022-09-09T09:08:45;5.45;;;1.70;;
14526;SDS011;7350;51.208;4.238;2022-09-09T09:11:18;8.15;;;2.00;;
14526;SDS011;7350;51.208;4.238;2022-09-09T09:13:47;5.75;;;2.03;;
14526;SDS011;7350;51.208;4.238;2022-09-09T09:16:22;8.85;;;1.95;;
14526;SDS011;7350;51.208;4.238;2022-09-09T09:18:57;6.03;;;1.88;;
14526;SDS011;7350;51.208;4.238;2022-09-09T09:21:26;6.63;;;2.08;;
14526;SDS011;7350;51.208;4.238;2022-09-09T09:24:02;6.57;;;1.80;;
14526;SDS011;7350;51.208;4.238;2022-09-09T09:26:40;5.90;;;2.13;;
14526;SDS011;7350;51.208;4.238;2022-09-09T09:29:11;6.38;;;1.80;;
14526;SDS011;7350;51.208;4.238;2022-09-09T09:31:41;7.65;;;2.10;;
14526;SDS011;7350;51.208;4.238;2022-09-09T09:34:13;7.55;;;2.05;;
14526;SDS011;7350;51.208;4.238;2022-09-09T09:36:40;8.45;;;2.08;;
14526;SDS011;7350;51.208;4.238;2022-09-09T09:39:21;9.73;;;2.00;;
14526;SDS011;7350;51.208;4.238;2022-09-09T09:41:49;6.35;;;1.90;;
14526;SDS011;7350;51.208;4.238;2022-09-09T09:44:23;5.53;;;1.85;;
14526;SDS011;7350;51.208;4.238;2022-09-09T09:46:52;7.20;;;2.45;;
14526;SDS011;7350;51.208;4.238;2022-09-09T09:49:31;7.10;;;1.88;;
14526;SDS011;7350;51.208;4.238;2022-09-09T09:52:00;6.57;;;2.10;;
14526;SDS011;7350;51.208;4.238;2022-09-09T09:54:28;6.95;;;2.33;;
14526;SDS011;7350;51.208;4.238;2022-09-09T09:56:56;7.30;;;2.05;;
14526;SDS011;7350;51.208;4.238;2022-09-09T09:59:36;7.55;;;2.38;;
14526;SDS011;7350;51.208;4.238;2022-09-09T10:05:00;4.95;;;1.95;;
14526;SDS011;7350;51.208;4.238;2022-09-09T10:07:28;9.75;;;2.45;;
14526;SDS011;7350;51.208;4.238;2022-09-09T10:09:55;8.15;;;2.13;;
14526;SDS011;7350;51.208;4.238;2022-09-09T10:12:26;7.80;;;2.05;;
14526;SDS011;7350;51.208;4.238;2022-09-09T10:15:06;6.43;;;1.92;;
14526;SDS011;7350;51.208;4.238;2022-09-09T10:17:51;6.10;;;1.73;;
14526;SDS011;7350;51.208;4.238;2022-09-09T10:20:29;6.43;;;1.85;;
14526;SDS011;7350;51.208;4.238;2022-09-09T10:23:06;6.00;;;2.15;;
14526;SDS011;7350;51.208;4.238;2022-09-09T10:25:52;5.43;;;1.88;;
14526;SDS011;7350;51.208;4.238;2022-09-09T10:28:40;6.63;;;1.80;;
14526;SDS011;7350;51.208;4.238;2022-09-09T10:31:25;5.68;;;2.03;;
14526;SDS011;7350;51.208;4.238;2022-09-09T10:33:57;6.07;;;1.90;;
14526;SDS011;7350;51.208;4.238;2022-09-09T10:36:33;9.85;;;2.00;;
14526;SDS011;7350;51.208;4.238;2022-09-09T10:39:03;5.95;;;1.98;;
14526;SDS011;7350;51.208;4.238;2022-09-09T10:41:38;5.95;;;1.95;;
14526;SDS011;7350;51.208;4.238;2022-09-09T10:44:18;6.93;;;2.20;;
14526;SDS011;7350;51.208;4.238;2022-09-09T10:47:03;5.38;;;1.80;;
14526;SDS011;7350;51.208;4.238;2022-09-09T10:50:04;6.75;;;2.50;;
14526;SDS011;7350;51.208;4.238;2022-09-09T10:52:40;4.55;;;1.85;;
14526;SDS011;7350;51.208;4.238;2022-09-09T10:55:20;3.95;;;1.70;;
14526;SDS011;7350;51.208;4.238;2022-09-09T10:57:52;4.75;;;1.70;;
14526;SDS011;7350;51.208;4.238;2022-09-09T11:00:23;5.75;;;1.77;;
14526;SDS011;7350;51.208;4.238;2022-09-09T11:02:54;5.57;;;1.75;;
14526;SDS011;7350;51.208;4.238;2022-09-09T11:05:24;4.47;;;1.45;;
14526;SDS011;7350;51.208;4.238;2022-09-09T11:07:57;5.93;;;1.55;;
14526;SDS011;7350;51.208;4.238;2022-09-09T11:10:28;3.10;;;1.40;;
14526;SDS011;7350;51.208;4.238;2022-09-09T11:13:01;5.55;;;2.05;;
14526;SDS011;7350;51.208;4.238;2022-09-09T11:15:34;6.90;;;1.73;;
14526;SDS011;7350;51.208;4.238;2022-09-09T11:18:08;3.45;;;1.30;;
14526;SDS011;7350;51.208;4.238;2022-09-09T11:20:40;4.93;;;1.80;;
14526;SDS011;7350;51.208;4.238;2022-09-09T11:23:09;2.55;;;1.00;;
14526;SDS011;7350;51.208;4.238;2022-09-09T11:25:41;4.65;;;1.60;;
14526;SDS011;7350;51.208;4.238;2022-09-09T11:28:21;3.63;;;1.50;;
14526;SDS011;7350;51.208;4.238;2022-09-09T11:31:01;4.60;;;1.55;;
14526;SDS011;7350;51.208;4.238;2022-09-09T11:36:45;4.32;;;1.95;;
14526;SDS011;7350;51.208;4.238;2022-09-09T11:39:42;3.78;;;1.45;;
14526;SDS011;7350;51.208;4.238;2022-09-09T11:42:19;7.43;;;1.73;;
14526;SDS011;7350;51.208;4.238;2022-09-09T11:44:48;6.38;;;1.48;;
14526;SDS011;7350;51.208;4.238;2022-09-09T11:47:18;6.15;;;1.88;;
14526;SDS011;7350;51.208;4.238;2022-09-09T11:49:50;5.10;;;1.52;;
14526;SDS011;7350;51.208;4.238;2022-09-09T11:52:22;3.67;;;1.15;;
14526;SDS011;7350;51.208;4.238;2022-09-09T11:54:51;4.13;;;1.20;;
14526;SDS011;7350;51.208;4.238;2022-09-09T11:57:25;2.85;;;1.25;;
14526;SDS011;7350;51.208;4.238;2022-09-09T11:59:56;3.38;;;1.33;;
14526;SDS011;7350;51.208;4.238;2022-09-09T12:02:24;4.45;;;1.52;;
14526;SDS011;7350;51.208;4.238;2022-09-09T12:04:59;3.40;;;1.00;;
14526;SDS011;7350;51.208;4.238;2022-09-09T12:07:33;6.07;;;1.13;;
14526;SDS011;7350;51.208;4.238;2022-09-09T12:10:05;2.92;;;1.00;;
14526;SDS011;7350;51.208;4.238;2022-09-09T12:12:48;3.03;;;1.02;;
14526;SDS011;7350;51.208;4.238;2022-09-09T12:15:19;6.25;;;1.60;;
14526;SDS011;7350;51.208;4.238;2022-09-09T12:17:49;4.80;;;1.00;;
14526;SDS011;7350;51.208;4.238;2022-09-09T12:20:20;4.97;;;1.30;;
14526;SDS011;7350;51.208;4.238;2022-09-09T12:22:54;3.58;;;1.40;;
14526;SDS011;7350;51.208;4.238;2022-09-09T12:25:33;3.40;;;1.30;;
14526;SDS011;7350;51.208;4.238;2022-09-09T12:28:14;2.75;;;0.88;;
14526;SDS011;7350;51.208;4.238;2022-09-09T12:30:46;1.85;;;0.77;;
14526;SDS011;7350;51.208;4.238;2022-09-09T12:33:19;2.50;;;1.10;;
14526;SDS011;7350;51.208;4.238;2022-09-09T12:35:49;4.45;;;1.25;;
14526;SDS011;7350;51.208;4.238;2022-09-09T12:38:21;3.00;;;1.05;;
14526;SDS011;7350;51.208;4.238;2022-09-09T12:40:55;1.80;;;0.73;;
14526;SDS011;7350;51.208;4.238;2022-09-09T12:43:24;4.47;;;1.10;;
14526;SDS011;7350;51.208;4.238;2022-09-09T12:45:52;3.13;;;1.00;;
14526;SDS011;7350;51.208;4.238;2022-09-09T12:48:24;3.58;;;1.00;;
14526;SDS011;7350;51.208;4.238;2022-09-09T12:51:00;3.28;;;1.02;;
14526;SDS011;7350;51.208;4.238;2022-09-09T12:53:29;5.00;;;1.40;;
14526;SDS011;7350;51.208;4.238;2022-09-09T12:55:59;4.35;;;1.00;;
14526;SDS011;7350;51.208;4.238;2022-09-09T12:58:28;2.30;;;0.93;;
14526;SDS011;7350;51.208;4.238;2022-09-09T13:01:00;3.33;;;1.17;;
14526;SDS011;7350;51.208;4.238;2022-09-09T13:03:30;3.60;;;0.93;;
14526;SDS011;7350;51.208;4.238;2022-09-09T13:05:58;2.53;;;1.00;;
14526;SDS011;7350;51.208;4.238;2022-09-09T13:08:37;4.35;;;1.10;;
14526;SDS011;7350;51.208;4.238;2022-09-09T13:11:07;3.97;;;1.15;;
14526;SDS011;7350;51.208;4.238;2022-09-09T13:13:39;3.53;;;1.20;;
14526;SDS011;7350;51.208;4.238;2022-09-09T13:16:18;2.53;;;1.00;;
14526;SDS011;7350;51.208;4.238;2022-09-09T13:18:46;1.73;;;0.90;;
14526;SDS011;7350;51.208;4.238;2022-09-09T13:21:14;3.75;;;1.23;;
14526;SDS011;7350;51.208;4.238;2022-09-09T13:23:47;2.88;;;1.02;;
14526;SDS011;7350;51.208;4.238;2022-09-09T13:26:22;3.42;;;1.17;;
14526;SDS011;7350;51.208;4.238;2022-09-09T13:28:51;4.55;;;1.13;;
14526;SDS011;7350;51.208;4.238;2022-09-09T13:31:20;6.35;;;1.25;;
14526;SDS011;7350;51.208;4.238;2022-09-09T13:33:49;2.05;;;1.10;;
14526;SDS011;7350;51.208;4.238;2022-09-09T13:36:26;5.50;;;1.20;;
14526;SDS011;7350;51.208;4.238;2022-09-09T13:38:57;2.17;;;1.30;;
14526;SDS011;7350;51.208;4.238;2022-09-09T13:41:27;4.05;;;1.27;;
14526;SDS011;7350;51.208;4.238;2022-09-09T13:43:58;3.30;;;1.13;;
14526;SDS011;7350;51.208;4.238;2022-09-09T13:46:28;4.55;;;1.10;;
14526;SDS011;7350;51.208;4.238;2022-09-09T13:48:58;1.35;;;0.80;;
14526;SDS011;7350;51.208;4.238;2022-09-09T13:51:29;3.63;;;1.05;;
14526;SDS011;7350;51.208;4.238;2022-09-09T13:54:03;2.40;;;1.20;;
14526;SDS011;7350;51.208;4.238;2022-09-09T13:56:31;3.55;;;0.98;;
14526;SDS011;7350;51.208;4.238;2022-09-09T13:58:58;1.45;;;1.20;;
14526;SDS011;7350;51.208;4.238;2022-09-09T14:01:25;3.35;;;0.95;;
14526;SDS011;7350;51.208;4.238;2022-09-09T14:03:53;3.97;;;1.05;;
14526;SDS011;7350;51.208;4.238;2022-09-09T14:06:20;3.33;;;1.10;;
14526;SDS011;7350;51.208;4.238;2022-09-09T14:08:48;3.35;;;1.30;;
14526;SDS011;7350;51.208;4.238;2022-09-09T14:11:18;4.07;;;1.10;;
14526;SDS011;7350;51.208;4.238;2022-09-09T14:13:46;4.45;;;1.20;;
14526;SDS011;7350;51.208;4.238;2022-09-09T14:16:14;3.17;;;1.33;;
14526;SDS011;7350;51.208;4.238;2022-09-09T14:18:42;1.77;;;0.90;;
14526;SDS011;7350;51.208;4.238;2022-09-09T14:21:09;2.60;;;0.93;;
14526;SDS011;7350;51.208;4.238;2022-09-09T14:23:36;2.17;;;0.90;;
14526;SDS011;7350;51.208;4.238;2022-09-09T14:26:03;4.18;;;1.10;;
14526;SDS011;7350;51.208;4.238;2022-09-09T14:28:32;2.88;;;1.02;;
14526;SDS011;7350;51.208;4.238;2022-09-09T14:31:00;2.22;;;1.20;;
14526;SDS011;7350;51.208;4.238;2022-09-09T14:33:27;4.30;;;1.33;;
14526;SDS011;7350;51.208;4.238;2022-09-09T14:35:55;2.17;;;1.15;;
14526;SDS011;7350;51.208;4.238;2022-09-09T14:38:23;3.50;;;1.30;;
14526;SDS011;7350;51.208;4.238;2022-09-09T14:40:51;4.35;;;1.75;;
14526;SDS011;7350;51.208;4.238;2022-09-09T14:43:17;2.33;;;1.25;;
14526;SDS011;7350;51.208;4.238;2022-09-09T14:45:46;4.10;;;1.50;;
14526;SDS011;7350;51.208;4.238;2022-09-09T14:48:15;4.82;;;1.70;;
14526;SDS011;7350;51.208;4.238;2022-09-09T14:50:42;4.20;;;2.20;;
14526;SDS011;7350;51.208;4.238;2022-09-09T14:53:09;6.68;;;1.52;;
14526;SDS011;7350;51.208;4.238;2022-09-09T14:55:36;5.03;;;1.85;;
14526;SDS011;7350;51.208;4.238;2022-09-09T14:58:04;2.78;;;1.70;;
14526;SDS011;7350;51.208;4.238;2022-09-09T15:00:31;4.70;;;2.10;;
14526;SDS011;7350;51.208;4.238;2022-09-09T15:02:59;4.70;;;2.30;;
14526;SDS011;7350;51.208;4.238;2022-09-09T15:05:26;4.13;;;2.53;;
14526;SDS011;7350;51.208;4.238;2022-09-09T15:07:54;4.18;;;2.10;;
14526;SDS011;7350;51.208;4.238;2022-09-09T15:10:21;6.28;;;2.38;;
14526;SDS011;7350;51.208;4.238;2022-09-09T15:12:48;3.72;;;2.25;;
14526;SDS011;7350;51.208;4.238;2022-09-09T15:15:15;3.88;;;1.70;;
14526;SDS011;7350;51.208;4.238;2022-09-09T15:17:42;4.35;;;1.50;;
14526;SDS011;7350;51.208;4.238;2022-09-09T15:20:10;3.90;;;1.80;;
14526;SDS011;7350;51.208;4.238;2022-09-09T15:22:37;2.97;;;1.42;;
14526;SDS011;7350;51.208;4.238;2022-09-09T15:25:05;2.53;;;1.42;;
14526;SDS011;7350;51.208;4.238;2022-09-09T15:27:33;4.25;;;1.70;;
14526;SDS011;7350;51.208;4.238;2022-09-09T15:30:00;4.15;;;2.20;;
14526;SDS011;7350;51.208;4.238;2022-09-09T15:32:27;3.88;;;2.00;;